sensor_id;sensor_type;location;lat;lon;timestamp;P1;durP1;ratioP1;P2;durP2;ratioP2
50225;SDS011;36113;50.742;6.432;2023-04-03T00:01:28;3.47;;;2.60;;
50225;SDS011;36113;50.742;6.432;2023-04-03T00:03:53;2.47;;;2.28;;
50225;SDS011;36113;50.742;6.432;2023-04-03T00:06:19;4.43;;;2.67;;
50225;SDS011;36113;50.742;6.432;2023-04-03T00:08:45;2.75;;;2.38;;
50225;SDS011;36113;50.742;6.432;2023-04-03T00:11:10;2.95;;;2.70;;
50225;SDS011;36113;50.742;6.432;2023-04-03T00:13:36;3.90;;;2.90;;
50225;SDS011;36113;50.742;6.432;2023-04-03T00:16:03;4.03;;;2.85;;
50225;SDS011;36113;50.742;6.432;2023-04-03T00:18:29;4.15;;;2.67;;
50225;SDS011;36113;50.742;6.432;2023-04-03T00:20:54;3.17;;;2.42;;
50225;SDS011;36113;50.742;6.432;2023-04-03T00:23:20;2.85;;;2.45;;
50225;SDS011;36113;50.742;6.432;2023-04-03T00:25:45;4.68;;;2.60;;
50225;SDS011;36113;50.742;6.432;2023-04-03T00:28:10;2.67;;;2.40;;
50225;SDS011;36113;50.742;6.432;2023-04-03T00:30:36;2.92;;;2.13;;
50225;SDS011;36113;50.742;6.432;2023-04-03T00:33:02;2.17;;;1.98;;
50225;SDS011;36113;50.742;6.432;2023-04-03T00:35:28;2.45;;;2.33;;
50225;SDS011;36113;50.742;6.432;2023-04-03T00:37:53;3.85;;;2.58;;
50225;SDS011;36113;50.742;6.432;2023-04-03T00:40:21;2.45;;;2.25;;
50225;SDS011;36113;50.742;6.432;2023-04-03T00:42:49;3.03;;;2.72;;
50225;SDS011;36113;50.742;6.432;2023-04-03T00:45:26;3.47;;;2.85;;
50225;SDS011;36113;50.742;6.432;2023-04-03T00:47:57;2.63;;;2.22;;
50225;SDS011;36113;50.742;6.432;2023-04-03T00:50:25;2.97;;;2.45;;
50225;SDS011;36113;50.742;6.432;2023-04-03T00:55:17;3.13;;;2.33;;
50225;SDS011;36113;50.742;6.432;2023-04-03T00:57:42;2.17;;;2.08;;
50225;SDS011;36113;50.742;6.432;2023-04-03T01:02:37;3.97;;;2.58;;
50225;SDS011;36113;50.742;6.432;2023-04-03T01:05:05;2.65;;;2.28;;
50225;SDS011;36113;50.742;6.432;2023-04-03T01:07:31;1.98;;;1.88;;
50225;SDS011;36113;50.742;6.432;2023-04-03T01:10:00;3.00;;;2.80;;
50225;SDS011;36113;50.742;6.432;2023-04-03T01:12:32;2.65;;;2.45;;
50225;SDS011;36113;50.742;6.432;2023-04-03T01:15:10;2.92;;;2.55;;
50225;SDS011;36113;50.742;6.432;2023-04-03T01:17:37;3.75;;;2.60;;
50225;SDS011;36113;50.742;6.432;2023-04-03T01:25:35;4.93;;;2.67;;
50225;SDS011;36113;50.742;6.432;2023-04-03T01:28:02;3.05;;;2.80;;
50225;SDS011;36113;50.742;6.432;2023-04-03T01:30:30;2.83;;;2.63;;
50225;SDS011;36113;50.742;6.432;2023-04-03T01:33:00;4.07;;;2.78;;
50225;SDS011;36113;50.742;6.432;2023-04-03T01:35:26;6.78;;;2.75;;
50225;SDS011;36113;50.742;6.432;2023-04-03T01:37:51;3.08;;;2.80;;
50225;SDS011;36113;50.742;6.432;2023-04-03T01:40:16;2.88;;;2.47;;
50225;SDS011;36113;50.742;6.432;2023-04-03T01:42:42;2.90;;;2.70;;
50225;SDS011;36113;50.742;6.432;2023-04-03T01:45:07;3.30;;;2.60;;
50225;SDS011;36113;50.742;6.432;2023-04-03T01:47:33;4.07;;;3.10;;
50225;SDS011;36113;50.742;6.432;2023-04-03T01:49:59;3.33;;;3.03;;
50225;SDS011;36113;50.742;6.432;2023-04-03T01:52:24;6.47;;;3.22;;
50225;SDS011;36113;50.742;6.432;2023-04-03T01:54:49;3.92;;;2.85;;
50225;SDS011;36113;50.742;6.432;2023-04-03T01:57:15;3.45;;;2.72;;
50225;SDS011;36113;50.742;6.432;2023-04-03T01:59:41;3.13;;;2.60;;
50225;SDS011;36113;50.742;6.432;2023-04-03T02:02:06;3.22;;;2.78;;
50225;SDS011;36113;50.742;6.432;2023-04-03T02:04:32;4.95;;;2.97;;
50225;SDS011;36113;50.742;6.432;2023-04-03T02:06:57;3.30;;;2.72;;
50225;SDS011;36113;50.742;6.432;2023-04-03T02:09:22;3.83;;;3.50;;
50225;SDS011;36113;50.742;6.432;2023-04-03T02:11:48;9.93;;;3.42;;
50225;SDS011;36113;50.742;6.432;2023-04-03T02:14:13;5.45;;;3.22;;
50225;SDS011;36113;50.742;6.432;2023-04-03T02:16:38;3.17;;;2.90;;
50225;SDS011;36113;50.742;6.432;2023-04-03T02:19:04;4.50;;;3.60;;
50225;SDS011;36113;50.742;6.432;2023-04-03T02:21:29;3.92;;;3.10;;
50225;SDS011;36113;50.742;6.432;2023-04-03T02:23:55;4.40;;;3.35;;
50225;SDS011;36113;50.742;6.432;2023-04-03T02:26:20;5.22;;;3.50;;
50225;SDS011;36113;50.742;6.432;2023-04-03T02:28:46;3.53;;;3.22;;
50225;SDS011;36113;50.742;6.432;2023-04-03T02:31:11;4.43;;;3.30;;
50225;SDS011;36113;50.742;6.432;2023-04-03T02:33:37;4.68;;;3.97;;
50225;SDS011;36113;50.742;6.432;2023-04-03T02:36:03;3.85;;;3.25;;
50225;SDS011;36113;50.742;6.432;2023-04-03T02:38:30;3.72;;;3.42;;
50225;SDS011;36113;50.742;6.432;2023-04-03T02:40:59;4.13;;;3.72;;
50225;SDS011;36113;50.742;6.432;2023-04-03T02:43:29;3.47;;;3.17;;
50225;SDS011;36113;50.742;6.432;2023-04-03T02:45:54;8.07;;;4.35;;
50225;SDS011;36113;50.742;6.432;2023-04-03T02:48:19;6.20;;;3.83;;
50225;SDS011;36113;50.742;6.432;2023-04-03T02:50:44;5.03;;;3.83;;
50225;SDS011;36113;50.742;6.432;2023-04-03T02:53:10;4.20;;;3.75;;
50225;SDS011;36113;50.742;6.432;2023-04-03T02:55:35;4.75;;;4.18;;
50225;SDS011;36113;50.742;6.432;2023-04-03T02:58:01;4.13;;;3.80;;
50225;SDS011;36113;50.742;6.432;2023-04-03T03:00:26;5.00;;;4.40;;
50225;SDS011;36113;50.742;6.432;2023-04-03T03:02:51;3.75;;;3.45;;
50225;SDS011;36113;50.742;6.432;2023-04-03T03:05:16;5.13;;;3.90;;
50225;SDS011;36113;50.742;6.432;2023-04-03T03:07:42;4.70;;;4.30;;
50225;SDS011;36113;50.742;6.432;2023-04-03T03:10:07;4.38;;;3.97;;
50225;SDS011;36113;50.742;6.432;2023-04-03T03:12:33;11.00;;;4.60;;
50225;SDS011;36113;50.742;6.432;2023-04-03T03:14:58;5.15;;;4.30;;
50225;SDS011;36113;50.742;6.432;2023-04-03T03:17:23;5.22;;;4.70;;
50225;SDS011;36113;50.742;6.432;2023-04-03T03:19:49;8.85;;;6.05;;
50225;SDS011;36113;50.742;6.432;2023-04-03T03:22:15;7.38;;;5.32;;
50225;SDS011;36113;50.742;6.432;2023-04-03T03:24:41;7.30;;;5.05;;
50225;SDS011;36113;50.742;6.432;2023-04-03T03:27:06;5.80;;;5.30;;
50225;SDS011;36113;50.742;6.432;2023-04-03T03:29:32;6.22;;;5.40;;
50225;SDS011;36113;50.742;6.432;2023-04-03T03:31:57;5.75;;;5.05;;
50225;SDS011;36113;50.742;6.432;2023-04-03T03:34:22;6.72;;;5.90;;
50225;SDS011;36113;50.742;6.432;2023-04-03T03:36:48;8.18;;;5.65;;
50225;SDS011;36113;50.742;6.432;2023-04-03T03:39:13;9.38;;;6.03;;
50225;SDS011;36113;50.742;6.432;2023-04-03T03:41:38;6.45;;;5.35;;
50225;SDS011;36113;50.742;6.432;2023-04-03T03:44:03;4.97;;;4.63;;
50225;SDS011;36113;50.742;6.432;2023-04-03T03:46:29;6.25;;;5.60;;
50225;SDS011;36113;50.742;6.432;2023-04-03T03:48:54;6.90;;;4.95;;
50225;SDS011;36113;50.742;6.432;2023-04-03T03:51:20;5.88;;;5.10;;
50225;SDS011;36113;50.742;6.432;2023-04-03T03:53:45;5.32;;;4.82;;
50225;SDS011;36113;50.742;6.432;2023-04-03T03:56:10;6.68;;;5.13;;
50225;SDS011;36113;50.742;6.432;2023-04-03T03:58:36;8.93;;;5.88;;
50225;SDS011;36113;50.742;6.432;2023-04-03T04:01:02;8.60;;;5.68;;
50225;SDS011;36113;50.742;6.432;2023-04-03T04:05:54;7.78;;;5.55;;
50225;SDS011;36113;50.742;6.432;2023-04-03T04:08:19;9.13;;;5.70;;
50225;SDS011;36113;50.742;6.432;2023-04-03T04:10:45;9.13;;;7.63;;
50225;SDS011;36113;50.742;6.432;2023-04-03T04:13:10;7.15;;;6.28;;
50225;SDS011;36113;50.742;6.432;2023-04-03T04:15:36;6.85;;;6.20;;
50225;SDS011;36113;50.742;6.432;2023-04-03T04:18:01;10.57;;;7.05;;
50225;SDS011;36113;50.742;6.432;2023-04-03T04:20:27;7.55;;;6.30;;
50225;SDS011;36113;50.742;6.432;2023-04-03T04:22:52;9.98;;;6.72;;
50225;SDS011;36113;50.742;6.432;2023-04-03T04:25:17;9.10;;;6.55;;
50225;SDS011;36113;50.742;6.432;2023-04-03T04:27:42;7.63;;;6.10;;
50225;SDS011;36113;50.742;6.432;2023-04-03T04:30:08;9.55;;;6.65;;
50225;SDS011;36113;50.742;6.432;2023-04-03T04:32:34;6.90;;;6.00;;
50225;SDS011;36113;50.742;6.432;2023-04-03T04:35:00;6.88;;;6.22;;
50225;SDS011;36113;50.742;6.432;2023-04-03T04:37:25;7.00;;;5.97;;
50225;SDS011;36113;50.742;6.432;2023-04-03T04:39:51;7.20;;;6.50;;
50225;SDS011;36113;50.742;6.432;2023-04-03T04:42:16;9.07;;;6.82;;
50225;SDS011;36113;50.742;6.432;2023-04-03T04:44:41;7.63;;;6.95;;
50225;SDS011;36113;50.742;6.432;2023-04-03T04:47:07;11.35;;;7.18;;
50225;SDS011;36113;50.742;6.432;2023-04-03T04:49:32;7.35;;;6.65;;
50225;SDS011;36113;50.742;6.432;2023-04-03T04:51:57;8.80;;;7.25;;
50225;SDS011;36113;50.742;6.432;2023-04-03T04:54:23;14.85;;;7.43;;
50225;SDS011;36113;50.742;6.432;2023-04-03T04:56:48;9.15;;;7.82;;
50225;SDS011;36113;50.742;6.432;2023-04-03T04:59:13;7.90;;;7.13;;
50225;SDS011;36113;50.742;6.432;2023-04-03T05:01:39;8.30;;;7.47;;
50225;SDS011;36113;50.742;6.432;2023-04-03T05:04:04;7.20;;;6.50;;
50225;SDS011;36113;50.742;6.432;2023-04-03T05:06:30;10.38;;;7.25;;
50225;SDS011;36113;50.742;6.432;2023-04-03T05:08:56;8.32;;;7.45;;
50225;SDS011;36113;50.742;6.432;2023-04-03T05:11:22;10.98;;;7.75;;
50225;SDS011;36113;50.742;6.432;2023-04-03T05:13:48;8.05;;;7.32;;
50225;SDS011;36113;50.742;6.432;2023-04-03T05:16:13;10.65;;;7.47;;
50225;SDS011;36113;50.742;6.432;2023-04-03T05:18:38;9.73;;;7.93;;
50225;SDS011;36113;50.742;6.432;2023-04-03T05:21:03;7.78;;;6.93;;
50225;SDS011;36113;50.742;6.432;2023-04-03T05:23:29;11.15;;;7.85;;
50225;SDS011;36113;50.742;6.432;2023-04-03T05:25:54;8.98;;;8.20;;
50225;SDS011;36113;50.742;6.432;2023-04-03T05:28:20;8.98;;;8.07;;
50225;SDS011;36113;50.742;6.432;2023-04-03T05:30:45;8.77;;;7.90;;
50225;SDS011;36113;50.742;6.432;2023-04-03T05:33:19;10.52;;;7.75;;
50225;SDS011;36113;50.742;6.432;2023-04-03T05:35:44;9.48;;;8.57;;
50225;SDS011;36113;50.742;6.432;2023-04-03T05:38:09;8.20;;;7.40;;
50225;SDS011;36113;50.742;6.432;2023-04-03T05:40:35;9.32;;;7.88;;
50225;SDS011;36113;50.742;6.432;2023-04-03T05:43:00;8.55;;;7.75;;
50225;SDS011;36113;50.742;6.432;2023-04-03T05:45:25;12.50;;;8.05;;
50225;SDS011;36113;50.742;6.432;2023-04-03T05:47:51;9.00;;;7.65;;
50225;SDS011;36113;50.742;6.432;2023-04-03T05:50:16;7.72;;;7.03;;
50225;SDS011;36113;50.742;6.432;2023-04-03T05:52:42;8.52;;;7.70;;
50225;SDS011;36113;50.742;6.432;2023-04-03T05:55:10;9.32;;;7.47;;
50225;SDS011;36113;50.742;6.432;2023-04-03T05:57:35;9.25;;;8.30;;
50225;SDS011;36113;50.742;6.432;2023-04-03T06:00:01;9.85;;;8.25;;
50225;SDS011;36113;50.742;6.432;2023-04-03T06:02:28;8.50;;;7.57;;
50225;SDS011;36113;50.742;6.432;2023-04-03T06:04:53;10.77;;;7.70;;
50225;SDS011;36113;50.742;6.432;2023-04-03T06:07:20;12.18;;;7.20;;
50225;SDS011;36113;50.742;6.432;2023-04-03T06:09:48;9.07;;;7.70;;
50225;SDS011;36113;50.742;6.432;2023-04-03T06:12:14;10.38;;;8.07;;
50225;SDS011;36113;50.742;6.432;2023-04-03T06:14:39;8.23;;;7.35;;
50225;SDS011;36113;50.742;6.432;2023-04-03T06:17:05;9.32;;;8.45;;
50225;SDS011;36113;50.742;6.432;2023-04-03T06:19:32;8.30;;;6.83;;
50225;SDS011;36113;50.742;6.432;2023-04-03T06:21:57;11.88;;;7.55;;
50225;SDS011;36113;50.742;6.432;2023-04-03T06:24:22;7.60;;;6.90;;
50225;SDS011;36113;50.742;6.432;2023-04-03T06:43:36;8.32;;;7.57;;
50225;SDS011;36113;50.742;6.432;2023-04-03T06:46:02;9.07;;;8.02;;
50225;SDS011;36113;50.742;6.432;2023-04-03T06:48:28;8.98;;;7.57;;
50225;SDS011;36113;50.742;6.432;2023-04-03T06:50:54;10.15;;;8.10;;
50225;SDS011;36113;50.742;6.432;2023-04-03T06:53:19;8.50;;;7.72;;
50225;SDS011;36113;50.742;6.432;2023-04-03T06:55:45;8.73;;;7.68;;
50225;SDS011;36113;50.742;6.432;2023-04-03T06:58:11;10.95;;;8.13;;
50225;SDS011;36113;50.742;6.432;2023-04-03T07:00:37;9.63;;;7.47;;
50225;SDS011;36113;50.742;6.432;2023-04-03T07:03:02;7.55;;;6.28;;
50225;SDS011;36113;50.742;6.432;2023-04-03T07:05:27;8.02;;;7.32;;
50225;SDS011;36113;50.742;6.432;2023-04-03T07:07:53;8.27;;;6.60;;
50225;SDS011;36113;50.742;6.432;2023-04-03T07:10:18;8.13;;;7.07;;
50225;SDS011;36113;50.742;6.432;2023-04-03T07:12:44;9.18;;;7.00;;
50225;SDS011;36113;50.742;6.432;2023-04-03T07:15:10;8.25;;;6.95;;
50225;SDS011;36113;50.742;6.432;2023-04-03T07:17:37;6.03;;;5.38;;
50225;SDS011;36113;50.742;6.432;2023-04-03T07:20:02;7.45;;;5.43;;
50225;SDS011;36113;50.742;6.432;2023-04-03T07:22:28;5.00;;;4.50;;
50225;SDS011;36113;50.742;6.432;2023-04-03T07:24:54;7.88;;;4.47;;
50225;SDS011;36113;50.742;6.432;2023-04-03T07:27:19;6.57;;;4.70;;
50225;SDS011;36113;50.742;6.432;2023-04-03T07:29:45;5.65;;;3.95;;
50225;SDS011;36113;50.742;6.432;2023-04-03T07:32:10;6.88;;;4.32;;
50225;SDS011;36113;50.742;6.432;2023-04-03T07:34:36;4.20;;;3.88;;
50225;SDS011;36113;50.742;6.432;2023-04-03T07:37:01;7.15;;;4.53;;
50225;SDS011;36113;50.742;6.432;2023-04-03T07:39:27;6.10;;;3.33;;
50225;SDS011;36113;50.742;6.432;2023-04-03T07:41:53;3.67;;;3.13;;
50225;SDS011;36113;50.742;6.432;2023-04-03T07:44:20;3.40;;;3.10;;
50225;SDS011;36113;50.742;6.432;2023-04-03T07:46:46;3.75;;;3.15;;
50225;SDS011;36113;50.742;6.432;2023-04-03T07:49:12;4.40;;;3.30;;
50225;SDS011;36113;50.742;6.432;2023-04-03T07:51:37;4.30;;;3.63;;
50225;SDS011;36113;50.742;6.432;2023-04-03T07:54:02;4.47;;;3.30;;
50225;SDS011;36113;50.742;6.432;2023-04-03T07:56:28;3.40;;;3.17;;
50225;SDS011;36113;50.742;6.432;2023-04-03T07:58:54;3.67;;;3.40;;
50225;SDS011;36113;50.742;6.432;2023-04-03T08:01:19;7.20;;;3.33;;
50225;SDS011;36113;50.742;6.432;2023-04-03T08:03:45;3.58;;;2.83;;
50225;SDS011;36113;50.742;6.432;2023-04-03T08:19:39;4.22;;;2.97;;
50225;SDS011;36113;50.742;6.432;2023-04-03T08:22:05;8.18;;;3.28;;
50225;SDS011;36113;50.742;6.432;2023-04-03T08:24:31;3.63;;;2.35;;
50225;SDS011;36113;50.742;6.432;2023-04-03T08:26:57;7.53;;;2.70;;
50225;SDS011;36113;50.742;6.432;2023-04-03T08:29:23;3.50;;;2.10;;
50225;SDS011;36113;50.742;6.432;2023-04-03T08:31:49;2.67;;;2.47;;
50225;SDS011;36113;50.742;6.432;2023-04-03T08:34:15;5.03;;;2.47;;
50225;SDS011;36113;50.742;6.432;2023-04-03T08:36:41;3.40;;;2.53;;
50225;SDS011;36113;50.742;6.432;2023-04-03T08:39:06;7.03;;;2.50;;
50225;SDS011;36113;50.742;6.432;2023-04-03T08:41:33;4.07;;;2.60;;
50225;SDS011;36113;50.742;6.432;2023-04-03T08:52:01;4.57;;;2.47;;
50225;SDS011;36113;50.742;6.432;2023-04-03T08:54:32;10.32;;;2.92;;
50225;SDS011;36113;50.742;6.432;2023-04-03T08:57:00;5.30;;;2.80;;
50225;SDS011;36113;50.742;6.432;2023-04-03T08:59:29;4.28;;;2.40;;
50225;SDS011;36113;50.742;6.432;2023-04-03T09:02:00;5.03;;;3.00;;
50225;SDS011;36113;50.742;6.432;2023-04-03T09:04:31;6.47;;;3.15;;
50225;SDS011;36113;50.742;6.432;2023-04-03T09:07:06;4.13;;;2.83;;
50225;SDS011;36113;50.742;6.432;2023-04-03T09:09:40;3.65;;;3.20;;
50225;SDS011;36113;50.742;6.432;2023-04-03T09:14:43;6.18;;;2.95;;
50225;SDS011;36113;50.742;6.432;2023-04-03T09:17:13;6.13;;;3.20;;
50225;SDS011;36113;50.742;6.432;2023-04-03T09:22:36;6.45;;;3.20;;
50225;SDS011;36113;50.742;6.432;2023-04-03T09:25:23;3.40;;;2.75;;
50225;SDS011;36113;50.742;6.432;2023-04-03T09:27:57;8.02;;;2.53;;
50225;SDS011;36113;50.742;6.432;2023-04-03T09:30:25;4.43;;;2.75;;
50225;SDS011;36113;50.742;6.432;2023-04-03T09:32:53;6.45;;;2.45;;
50225;SDS011;36113;50.742;6.432;2023-04-03T09:37:45;6.25;;;2.33;;
50225;SDS011;36113;50.742;6.432;2023-04-03T09:42:51;2.50;;;2.30;;
50225;SDS011;36113;50.742;6.432;2023-04-03T09:45:23;2.50;;;2.30;;
50225;SDS011;36113;50.742;6.432;2023-04-03T09:48:07;5.60;;;2.20;;
50225;SDS011;36113;50.742;6.432;2023-04-03T09:50:33;4.18;;;2.38;;
50225;SDS011;36113;50.742;6.432;2023-04-03T09:53:01;3.60;;;2.40;;
50225;SDS011;36113;50.742;6.432;2023-04-03T09:55:31;4.00;;;2.35;;
50225;SDS011;36113;50.742;6.432;2023-04-03T09:57:58;2.42;;;2.22;;
50225;SDS011;36113;50.742;6.432;2023-04-03T10:00:35;3.13;;;2.42;;
50225;SDS011;36113;50.742;6.432;2023-04-03T10:03:04;5.55;;;2.80;;
50225;SDS011;36113;50.742;6.432;2023-04-03T10:10:41;1.75;;;1.65;;
50225;SDS011;36113;50.742;6.432;2023-04-03T10:15:48;4.00;;;2.15;;
50225;SDS011;36113;50.742;6.432;2023-04-03T10:20:47;3.72;;;1.80;;
50225;SDS011;36113;50.742;6.432;2023-04-03T10:23:21;3.03;;;2.05;;
50225;SDS011;36113;50.742;6.432;2023-04-03T10:26:02;2.45;;;1.70;;
50225;SDS011;36113;50.742;6.432;2023-04-03T10:28:57;3.85;;;1.70;;
50225;SDS011;36113;50.742;6.432;2023-04-03T10:31:59;2.13;;;1.77;;
50225;SDS011;36113;50.742;6.432;2023-04-03T10:34:41;4.38;;;2.13;;
50225;SDS011;36113;50.742;6.432;2023-04-03T10:37:14;4.30;;;1.92;;
50225;SDS011;36113;50.742;6.432;2023-04-03T10:42:59;7.53;;;2.47;;
50225;SDS011;36113;50.742;6.432;2023-04-03T10:54:13;2.88;;;1.73;;
50225;SDS011;36113;50.742;6.432;2023-04-03T10:56:50;2.75;;;1.65;;
50225;SDS011;36113;50.742;6.432;2023-04-03T10:59:25;5.80;;;2.10;;
50225;SDS011;36113;50.742;6.432;2023-04-03T11:01:56;1.40;;;1.30;;
50225;SDS011;36113;50.742;6.432;2023-04-03T11:04:48;4.60;;;1.50;;
50225;SDS011;36113;50.742;6.432;2023-04-03T11:07:20;3.38;;;1.50;;
50225;SDS011;36113;50.742;6.432;2023-04-03T11:09:49;2.75;;;1.85;;
50225;SDS011;36113;50.742;6.432;2023-04-03T11:17:38;1.80;;;1.33;;
50225;SDS011;36113;50.742;6.432;2023-04-03T11:20:30;3.30;;;1.65;;
50225;SDS011;36113;50.742;6.432;2023-04-03T11:23:02;1.25;;;1.15;;
50225;SDS011;36113;50.742;6.432;2023-04-03T11:25:31;1.92;;;1.52;;
50225;SDS011;36113;50.742;6.432;2023-04-03T11:28:00;3.33;;;1.65;;
50225;SDS011;36113;50.742;6.432;2023-04-03T11:36:26;1.73;;;1.50;;
50225;SDS011;36113;50.742;6.432;2023-04-03T11:38:56;3.17;;;1.55;;
50225;SDS011;36113;50.742;6.432;2023-04-03T11:41:26;4.63;;;1.33;;
50225;SDS011;36113;50.742;6.432;2023-04-03T11:43:58;1.73;;;1.27;;
50225;SDS011;36113;50.742;6.432;2023-04-03T11:53:02;1.63;;;1.45;;
50225;SDS011;36113;50.742;6.432;2023-04-03T11:58:02;1.45;;;1.33;;
50225;SDS011;36113;50.742;6.432;2023-04-03T12:16:22;2.92;;;1.73;;
50225;SDS011;36113;50.742;6.432;2023-04-03T12:21:20;1.60;;;1.10;;
50225;SDS011;36113;50.742;6.432;2023-04-03T12:34:41;3.22;;;1.45;;
50225;SDS011;36113;50.742;6.432;2023-04-03T12:40:15;1.70;;;1.60;;
50225;SDS011;36113;50.742;6.432;2023-04-03T12:45:25;1.92;;;1.40;;
50225;SDS011;36113;50.742;6.432;2023-04-03T12:47:52;2.83;;;1.58;;
50225;SDS011;36113;50.742;6.432;2023-04-03T12:50:37;3.53;;;1.70;;
50225;SDS011;36113;50.742;6.432;2023-04-03T12:53:13;1.50;;;1.38;;
50225;SDS011;36113;50.742;6.432;2023-04-03T12:55:43;1.65;;;1.50;;
50225;SDS011;36113;50.742;6.432;2023-04-03T12:58:15;1.58;;;1.48;;
50225;SDS011;36113;50.742;6.432;2023-04-03T13:00:45;5.97;;;1.55;;
50225;SDS011;36113;50.742;6.432;2023-04-03T13:03:21;1.48;;;1.25;;
50225;SDS011;36113;50.742;6.432;2023-04-03T13:05:49;1.98;;;1.50;;
50225;SDS011;36113;50.742;6.432;2023-04-03T13:08:15;2.13;;;1.85;;
50225;SDS011;36113;50.742;6.432;2023-04-03T13:11:03;2.95;;;1.70;;
50225;SDS011;36113;50.742;6.432;2023-04-03T13:13:34;1.27;;;1.17;;
50225;SDS011;36113;50.742;6.432;2023-04-03T13:16:07;2.05;;;1.52;;
50225;SDS011;36113;50.742;6.432;2023-04-03T13:18:35;1.25;;;1.25;;
50225;SDS011;36113;50.742;6.432;2023-04-03T13:21:08;1.60;;;1.50;;
50225;SDS011;36113;50.742;6.432;2023-04-03T13:23:40;1.60;;;1.45;;
50225;SDS011;36113;50.742;6.432;2023-04-03T13:26:09;1.88;;;1.58;;
50225;SDS011;36113;50.742;6.432;2023-04-03T13:28:35;2.07;;;1.90;;
50225;SDS011;36113;50.742;6.432;2023-04-03T13:33:43;3.42;;;1.58;;
50225;SDS011;36113;50.742;6.432;2023-04-03T13:36:30;3.20;;;1.90;;
50225;SDS011;36113;50.742;6.432;2023-04-03T13:41:38;5.30;;;3.75;;
50225;SDS011;36113;50.742;6.432;2023-04-03T13:46:46;9.38;;;6.75;;
50225;SDS011;36113;50.742;6.432;2023-04-03T13:52:17;11.60;;;8.82;;
50225;SDS011;36113;50.742;6.432;2023-04-03T13:54:51;6.15;;;5.55;;
50225;SDS011;36113;50.742;6.432;2023-04-03T13:57:19;5.13;;;4.65;;
50225;SDS011;36113;50.742;6.432;2023-04-03T13:59:44;3.33;;;3.03;;
50225;SDS011;36113;50.742;6.432;2023-04-03T14:02:13;7.45;;;6.35;;
50225;SDS011;36113;50.742;6.432;2023-04-03T14:07:13;1.40;;;1.30;;
50225;SDS011;36113;50.742;6.432;2023-04-03T14:09:41;2.05;;;1.63;;
50225;SDS011;36113;50.742;6.432;2023-04-03T14:12:29;7.57;;;5.30;;
50225;SDS011;36113;50.742;6.432;2023-04-03T14:14:56;7.30;;;5.78;;
50225;SDS011;36113;50.742;6.432;2023-04-03T14:17:23;4.30;;;2.70;;
50225;SDS011;36113;50.742;6.432;2023-04-03T14:19:50;1.45;;;1.35;;
50225;SDS011;36113;50.742;6.432;2023-04-03T14:22:24;1.73;;;1.55;;
50225;SDS011;36113;50.742;6.432;2023-04-03T14:24:51;3.85;;;1.60;;
50225;SDS011;36113;50.742;6.432;2023-04-03T14:29:42;3.45;;;1.50;;
50225;SDS011;36113;50.742;6.432;2023-04-03T14:32:10;2.42;;;1.90;;
50225;SDS011;36113;50.742;6.432;2023-04-03T14:34:36;2.42;;;1.55;;
50225;SDS011;36113;50.742;6.432;2023-04-03T14:37:02;3.15;;;1.42;;
50225;SDS011;36113;50.742;6.432;2023-04-03T14:39:27;6.05;;;4.25;;
50225;SDS011;36113;50.742;6.432;2023-04-03T14:41:52;5.50;;;4.05;;
50225;SDS011;36113;50.742;6.432;2023-04-03T14:44:18;1.80;;;1.70;;
50225;SDS011;36113;50.742;6.432;2023-04-03T14:46:43;2.17;;;1.75;;
50225;SDS011;36113;50.742;6.432;2023-04-03T14:49:17;1.35;;;1.25;;
50225;SDS011;36113;50.742;6.432;2023-04-03T14:51:45;4.30;;;1.58;;
50225;SDS011;36113;50.742;6.432;2023-04-03T14:54:15;6.97;;;5.20;;
50225;SDS011;36113;50.742;6.432;2023-04-03T14:56:44;2.97;;;2.17;;
50225;SDS011;36113;50.742;6.432;2023-04-03T14:59:09;1.67;;;1.35;;
50225;SDS011;36113;50.742;6.432;2023-04-03T15:01:36;3.55;;;1.52;;
50225;SDS011;36113;50.742;6.432;2023-04-03T15:04:05;2.42;;;1.60;;
50225;SDS011;36113;50.742;6.432;2023-04-03T15:06:35;2.00;;;1.63;;
50225;SDS011;36113;50.742;6.432;2023-04-03T15:09:00;2.75;;;1.50;;
50225;SDS011;36113;50.742;6.432;2023-04-03T15:11:26;2.70;;;1.38;;
50225;SDS011;36113;50.742;6.432;2023-04-03T15:13:51;3.42;;;1.27;;
50225;SDS011;36113;50.742;6.432;2023-04-03T15:16:17;2.25;;;1.48;;
50225;SDS011;36113;50.742;6.432;2023-04-03T15:18:44;5.80;;;3.90;;
50225;SDS011;36113;50.742;6.432;2023-04-03T15:21:11;12.13;;;10.73;;
50225;SDS011;36113;50.742;6.432;2023-04-03T15:23:36;2.35;;;1.60;;
50225;SDS011;36113;50.742;6.432;2023-04-03T15:26:02;2.90;;;1.60;;
50225;SDS011;36113;50.742;6.432;2023-04-03T15:30:55;4.78;;;2.13;;
50225;SDS011;36113;50.742;6.432;2023-04-03T15:33:21;3.22;;;1.60;;
50225;SDS011;36113;50.742;6.432;2023-04-03T15:35:47;2.20;;;2.00;;
50225;SDS011;36113;50.742;6.432;2023-04-03T15:38:12;1.73;;;1.63;;
50225;SDS011;36113;50.742;6.432;2023-04-03T15:40:37;5.72;;;2.28;;
50225;SDS011;36113;50.742;6.432;2023-04-03T15:43:03;2.22;;;1.40;;
50225;SDS011;36113;50.742;6.432;2023-04-03T15:47:55;2.53;;;2.33;;
50225;SDS011;36113;50.742;6.432;2023-04-03T15:50:21;2.33;;;1.63;;
50225;SDS011;36113;50.742;6.432;2023-04-03T15:55:19;1.92;;;1.60;;
50225;SDS011;36113;50.742;6.432;2023-04-03T15:57:45;1.70;;;1.60;;
50225;SDS011;36113;50.742;6.432;2023-04-03T16:00:10;1.67;;;1.58;;
50225;SDS011;36113;50.742;6.432;2023-04-03T16:02:36;2.60;;;2.03;;
50225;SDS011;36113;50.742;6.432;2023-04-03T16:05:02;2.08;;;1.27;;
50225;SDS011;36113;50.742;6.432;2023-04-03T16:07:27;10.38;;;2.80;;
50225;SDS011;36113;50.742;6.432;2023-04-03T16:09:53;2.95;;;1.95;;
50225;SDS011;36113;50.742;6.432;2023-04-03T16:12:18;2.80;;;2.25;;
50225;SDS011;36113;50.742;6.432;2023-04-03T16:14:43;2.15;;;1.95;;
50225;SDS011;36113;50.742;6.432;2023-04-03T16:17:09;3.45;;;3.15;;
50225;SDS011;36113;50.742;6.432;2023-04-03T16:19:34;4.55;;;3.30;;
50225;SDS011;36113;50.742;6.432;2023-04-03T16:22:00;10.68;;;9.65;;
50225;SDS011;36113;50.742;6.432;2023-04-03T16:24:25;7.45;;;6.65;;
50225;SDS011;36113;50.742;6.432;2023-04-03T16:26:50;4.55;;;2.45;;
50225;SDS011;36113;50.742;6.432;2023-04-03T16:29:18;3.15;;;2.55;;
50225;SDS011;36113;50.742;6.432;2023-04-03T16:31:43;3.05;;;2.53;;
50225;SDS011;36113;50.742;6.432;2023-04-03T16:34:09;3.78;;;3.40;;
50225;SDS011;36113;50.742;6.432;2023-04-03T16:36:34;5.00;;;2.10;;
50225;SDS011;36113;50.742;6.432;2023-04-03T16:39:00;1.95;;;1.70;;
50225;SDS011;36113;50.742;6.432;2023-04-03T16:41:25;3.25;;;2.30;;
50225;SDS011;36113;50.742;6.432;2023-04-03T16:43:50;1.75;;;1.65;;
50225;SDS011;36113;50.742;6.432;2023-04-03T16:46:16;3.47;;;3.13;;
50225;SDS011;36113;50.742;6.432;2023-04-03T16:48:41;1.73;;;1.60;;
50225;SDS011;36113;50.742;6.432;2023-04-03T16:51:06;2.47;;;2.10;;
50225;SDS011;36113;50.742;6.432;2023-04-03T16:53:32;2.75;;;2.30;;
50225;SDS011;36113;50.742;6.432;2023-04-03T16:55:57;2.15;;;1.95;;
50225;SDS011;36113;50.742;6.432;2023-04-03T16:58:23;3.30;;;1.90;;
50225;SDS011;36113;50.742;6.432;2023-04-03T17:00:48;3.63;;;1.80;;
50225;SDS011;36113;50.742;6.432;2023-04-03T17:03:13;2.03;;;1.60;;
50225;SDS011;36113;50.742;6.432;2023-04-03T17:05:39;4.75;;;2.53;;
50225;SDS011;36113;50.742;6.432;2023-04-03T17:08:04;3.88;;;3.47;;
50225;SDS011;36113;50.742;6.432;2023-04-03T17:10:30;2.28;;;1.63;;
50225;SDS011;36113;50.742;6.432;2023-04-03T17:12:55;2.60;;;1.50;;
50225;SDS011;36113;50.742;6.432;2023-04-03T17:15:21;12.00;;;8.60;;
50225;SDS011;36113;50.742;6.432;2023-04-03T17:17:47;12.70;;;9.70;;
50225;SDS011;36113;50.742;6.432;2023-04-03T17:22:39;2.40;;;2.25;;
50225;SDS011;36113;50.742;6.432;2023-04-03T17:25:05;6.63;;;4.55;;
50225;SDS011;36113;50.742;6.432;2023-04-03T17:27:31;5.13;;;3.33;;
50225;SDS011;36113;50.742;6.432;2023-04-03T17:29:56;29.55;;;19.83;;
50225;SDS011;36113;50.742;6.432;2023-04-03T17:32:21;14.90;;;10.60;;